Time;durP1;ratioP1;P1;durP2;ratioP2;P2;SDS_P1;SDS_P2;PMS_P1;PMS_P2;Temp;Humidity;BMP_temperature;BMP_pressure;BME280_temperature;BME280_humidity;BME280_pressure;Samples;Min_cycle;Max_cycle;Signal;HPM_P1;HPM_P2
2023/05/03 00:01:20;;;;;;;2.10;0.70;;;;;;;;;;5129193;27;20558;-72
2023/05/03 00:03:51;;;;;;;0.98;0.55;;;;;;;;;;5127355;27;20075;-72
2023/05/03 00:06:19;;;;;;;2.65;0.60;;;;;;;;;;5126487;27;20389;-71
2023/05/03 00:08:46;;;;;;;1.73;0.60;;;;;;;;;;5127062;27;20043;-71
2023/05/03 00:11:13;;;;;;;3.80;0.70;;;;;;;;;;5125552;27;20047;-72
2023/05/03 00:13:41;;;;;;;1.38;0.70;;;;;;;;;;5127101;27;20051;-71
2023/05/03 00:16:08;;;;;;;1.52;0.60;;;;;;;;;;5126980;27;20704;-72
2023/05/03 00:18:35;;;;;;;1.98;0.70;;;;;;;;;;5125621;27;20171;-72
2023/05/03 00:21:04;;;;;;;1.77;0.60;;;;;;;;;;5114774;27;20063;-71
2023/05/03 00:23:31;;;;;;;1.83;0.40;;;;;;;;;;5103985;28;20107;-71
2023/05/03 00:25:59;;;;;;;0.60;0.40;;;;;;;;;;5105285;28;20093;-72
2023/05/03 00:28:26;;;;;;;3.10;0.68;;;;;;;;;;5111205;28;20495;-71
2023/05/03 00:30:54;;;;;;;3.40;0.77;;;;;;;;;;5106042;28;20414;-71
2023/05/03 00:33:21;;;;;;;3.15;0.80;;;;;;;;;;5110541;28;20058;-72
2023/05/03 00:35:48;;;;;;;1.98;0.70;;;;;;;;;;5110562;28;20050;-72
2023/05/03 00:38:17;;;;;;;1.85;0.60;;;;;;;;;;5112208;28;20039;-71
2023/05/03 00:40:45;;;;;;;2.63;0.73;;;;;;;;;;5103792;28;20502;-71
2023/05/03 00:43:13;;;;;;;2.00;0.65;;;;;;;;;;5112084;28;20046;-71
2023/05/03 00:52:25;;;;;;;3.30;0.43;;;;;;;;;;5104661;28;20042;-71
2023/05/03 00:54:54;;;;;;;3.30;0.60;;;;;;;;;;5103087;28;20048;-71
2023/05/03 00:57:22;;;;;;;1.00;0.55;;;;;;;;;;5104897;28;20048;-72
2023/05/03 00:59:49;;;;;;;1.38;0.50;;;;;;;;;;5115753;28;20035;-71
2023/05/03 01:02:16;;;;;;;1.98;0.50;;;;;;;;;;5093240;27;20517;-71
2023/05/03 01:04:43;;;;;;;1.15;0.50;;;;;;;;;;5108880;27;20492;-73
2023/05/03 01:07:17;;;;;;;1.23;0.40;;;;;;;;;;5117493;27;20538;-71
2023/05/03 01:09:44;;;;;;;;;;;;;;;;;;5108284;27;20458;-71
2023/05/03 01:12:20;;;;;;;2.05;0.30;;;;;;;;;;5097740;27;19938;-72
2023/05/03 01:14:51;;;;;;;0.90;0.50;;;;;;;;;;5119049;27;20071;-71
2023/05/03 01:17:20;;;;;;;0.50;0.40;;;;;;;;;;5095499;28;20055;-71
2023/05/03 01:19:51;;;;;;;0.47;0.35;;;;;;;;;;5112509;27;20044;-71
2023/05/03 01:22:22;;;;;;;1.88;0.50;;;;;;;;;;5129606;27;20517;-71
2023/05/03 01:24:52;;;;;;;2.55;0.60;;;;;;;;;;5130842;27;20057;-71
2023/05/03 01:27:21;;;;;;;1.08;0.40;;;;;;;;;;5130749;27;20051;-71
2023/05/03 01:29:48;;;;;;;1.05;0.40;;;;;;;;;;5130834;27;20054;-71
2023/05/03 01:32:20;;;;;;;1.60;0.50;;;;;;;;;;5129211;27;20047;-71
2023/05/03 01:34:51;;;;;;;0.40;0.40;;;;;;;;;;5129603;27;20070;-71
2023/05/03 01:37:19;;;;;;;1.08;0.40;;;;;;;;;;5105244;28;20062;-71
2023/05/03 01:39:49;;;;;;;1.15;0.50;;;;;;;;;;5107053;28;20048;-71
2023/05/03 01:42:17;;;;;;;0.88;0.40;;;;;;;;;;5130561;27;20055;-71
2023/05/03 01:44:46;;;;;;;1.33;0.40;;;;;;;;;;5109569;27;20586;-71
2023/05/03 01:47:14;;;;;;;2.22;0.68;;;;;;;;;;5111682;27;20053;-71
2023/05/03 01:49:41;;;;;;;1.17;0.52;;;;;;;;;;5130206;27;20119;-72
2023/05/03 01:52:09;;;;;;;1.67;0.60;;;;;;;;;;5130196;27;20053;-71
2023/05/03 01:54:36;;;;;;;1.27;0.40;;;;;;;;;;5109142;27;20058;-71
2023/05/03 01:57:04;;;;;;;1.48;0.40;;;;;;;;;;5129673;27;20127;-71
2023/05/03 01:59:31;;;;;;;1.77;0.40;;;;;;;;;;5112314;27;20091;-71
2023/05/03 02:01:59;;;;;;;3.80;0.75;;;;;;;;;;5129746;27;20066;-72
2023/05/03 02:04:27;;;;;;;1.65;0.50;;;;;;;;;;5126749;27;20051;-71
2023/05/03 02:06:54;;;;;;;1.77;0.60;;;;;;;;;;5126651;27;20047;-71
2023/05/03 02:09:22;;;;;;;2.55;0.50;;;;;;;;;;5128384;27;20071;-71
2023/05/03 02:11:50;;;;;;;3.30;0.63;;;;;;;;;;5129674;27;20043;-71
2023/05/03 02:14:17;;;;;;;3.47;0.65;;;;;;;;;;5128414;27;20543;-71
2023/05/03 02:16:44;;;;;;;1.20;0.50;;;;;;;;;;5130864;27;20051;-71
2023/05/03 02:19:13;;;;;;;3.75;0.50;;;;;;;;;;5124462;27;20595;-71
2023/05/03 02:21:40;;;;;;;0.60;0.30;;;;;;;;;;5130484;27;20043;-71
2023/05/03 02:24:07;;;;;;;1.40;0.50;;;;;;;;;;5108368;27;20063;-71
2023/05/03 02:26:35;;;;;;;1.25;0.60;;;;;;;;;;5129923;27;20047;-71
2023/05/03 02:29:02;;;;;;;3.03;0.60;;;;;;;;;;5129482;27;20599;-71
2023/05/03 02:31:30;;;;;;;2.40;0.60;;;;;;;;;;5130072;27;20110;-71
2023/05/03 02:33:57;;;;;;;3.03;0.57;;;;;;;;;;5129580;27;20082;-71
2023/05/03 02:36:26;;;;;;;0.82;0.50;;;;;;;;;;5129658;27;20172;-71
2023/05/03 02:38:53;;;;;;;0.77;0.52;;;;;;;;;;5127526;27;20083;-72
2023/05/03 02:41:21;;;;;;;2.10;0.63;;;;;;;;;;5127546;27;20051;-71
2023/05/03 02:43:48;;;;;;;3.13;0.73;;;;;;;;;;5111228;27;20039;-72
2023/05/03 02:46:15;;;;;;;0.73;0.50;;;;;;;;;;5129389;27;20074;-71
2023/05/03 02:48:42;;;;;;;2.15;0.57;;;;;;;;;;5130016;27;20043;-71
2023/05/03 02:51:10;;;;;;;0.60;0.45;;;;;;;;;;5127753;27;20135;-71
2023/05/03 02:53:38;;;;;;;5.05;0.70;;;;;;;;;;5119157;27;20051;-71
2023/05/03 02:56:06;;;;;;;1.60;0.47;;;;;;;;;;5113182;27;20058;-71
2023/05/03 02:58:33;;;;;;;1.02;0.60;;;;;;;;;;5123539;27;20621;-71
2023/05/03 03:01:00;;;;;;;3.05;0.60;;;;;;;;;;5121733;27;20079;-71
2023/05/03 03:03:28;;;;;;;0.73;0.52;;;;;;;;;;5124587;27;20054;-71
2023/05/03 03:05:55;;;;;;;2.65;0.50;;;;;;;;;;5127343;27;20047;-71
2023/05/03 03:08:23;;;;;;;0.95;0.50;;;;;;;;;;5122404;27;20047;-72
2023/05/03 03:10:52;;;;;;;4.20;1.30;;;;;;;;;;5122495;27;20120;-72
2023/05/03 03:13:19;;;;;;;1.10;0.57;;;;;;;;;;5129488;27;20606;-71
2023/05/03 03:15:46;;;;;;;2.58;0.70;;;;;;;;;;5109947;27;20577;-72
2023/05/03 03:18:14;;;;;;;2.25;0.63;;;;;;;;;;5129580;27;20047;-71
2023/05/03 03:20:41;;;;;;;1.40;0.50;;;;;;;;;;5125894;27;20070;-72
2023/05/03 03:23:08;;;;;;;0.60;0.50;;;;;;;;;;5129552;27;20039;-71
2023/05/03 03:25:35;;;;;;;2.38;0.63;;;;;;;;;;5126149;27;20393;-72
2023/05/03 03:28:04;;;;;;;1.77;0.73;;;;;;;;;;5123207;27;20489;-71
2023/05/03 03:30:32;;;;;;;3.22;0.80;;;;;;;;;;5129207;27;20054;-72
2023/05/03 03:32:59;;;;;;;0.95;0.60;;;;;;;;;;5128204;27;20050;-72
2023/05/03 03:35:26;;;;;;;2.78;0.90;;;;;;;;;;5129732;27;20490;-72
2023/05/03 03:37:54;;;;;;;2.80;0.60;;;;;;;;;;5108891;27;20059;-71
2023/05/03 03:40:21;;;;;;;1.60;0.68;;;;;;;;;;5128893;27;20051;-71
2023/05/03 03:42:48;;;;;;;3.20;0.65;;;;;;;;;;5131927;27;20501;-71
2023/05/03 03:45:17;;;;;;;2.88;0.70;;;;;;;;;;5127972;27;20055;-72
2023/05/03 03:47:44;;;;;;;1.58;0.70;;;;;;;;;;5123362;27;20043;-72
2023/05/03 03:50:11;;;;;;;2.08;0.40;;;;;;;;;;5128110;27;20495;-72
2023/05/03 03:52:39;;;;;;;0.95;0.52;;;;;;;;;;5128684;27;20051;-72
2023/05/03 03:55:06;;;;;;;3.70;0.75;;;;;;;;;;5127290;27;20474;-71
2023/05/03 03:57:33;;;;;;;1.90;0.50;;;;;;;;;;5124384;27;20046;-71
2023/05/03 04:00:04;;;;;;;2.47;0.75;;;;;;;;;;5125797;27;20045;-72
2023/05/03 04:02:32;;;;;;;4.07;0.60;;;;;;;;;;5123041;27;20118;-72
2023/05/03 04:05:00;;;;;;;1.30;0.70;;;;;;;;;;5125390;27;20455;-72
2023/05/03 04:07:27;;;;;;;0.75;0.57;;;;;;;;;;5128591;27;20054;-71
2023/05/03 04:09:55;;;;;;;1.48;0.73;;;;;;;;;;5107394;27;20063;-71
2023/05/03 04:12:22;;;;;;;1.30;0.63;;;;;;;;;;5127297;27;20039;-71
2023/05/03 04:14:50;;;;;;;1.92;0.80;;;;;;;;;;5123273;27;20047;-71
2023/05/03 04:17:17;;;;;;;2.08;0.73;;;;;;;;;;5109369;27;20077;-71
2023/05/03 04:19:46;;;;;;;1.25;0.70;;;;;;;;;;5129004;27;20047;-71
2023/05/03 04:22:13;;;;;;;2.25;0.60;;;;;;;;;;5127768;27;20051;-71
2023/05/03 04:24:41;;;;;;;1.13;0.50;;;;;;;;;;5128651;27;20051;-71
2023/05/03 04:27:09;;;;;;;0.95;0.60;;;;;;;;;;5107528;27;20096;-71
2023/05/03 04:29:37;;;;;;;3.42;0.98;;;;;;;;;;5128828;27;20047;-72
2023/05/03 04:32:05;;;;;;;2.25;1.08;;;;;;;;;;5103598;28;20130;-71
2023/05/03 04:34:32;;;;;;;2.60;0.80;;;;;;;;;;5127528;27;20051;-72
2023/05/03 04:37:01;;;;;;;0.90;0.52;;;;;;;;;;5129694;27;20394;-71
2023/05/03 04:39:28;;;;;;;2.03;0.82;;;;;;;;;;5130423;27;20498;-71
2023/05/03 04:41:55;;;;;;;1.98;0.90;;;;;;;;;;5131317;27;20039;-71
2023/05/03 04:44:23;;;;;;;1.42;0.70;;;;;;;;;;5112230;27;20479;-71
2023/05/03 04:46:50;;;;;;;0.93;0.70;;;;;;;;;;5131974;27;20047;-71
2023/05/03 04:49:17;;;;;;;2.28;0.98;;;;;;;;;;5112503;27;20084;-71
2023/05/03 04:51:44;;;;;;;1.75;0.57;;;;;;;;;;5111724;27;20079;-71
2023/05/03 04:54:13;;;;;;;2.53;0.80;;;;;;;;;;5128967;27;20074;-71
2023/05/03 04:56:40;;;;;;;1.55;0.73;;;;;;;;;;5113538;27;20051;-72
2023/05/03 04:59:07;;;;;;;1.77;1.05;;;;;;;;;;5127982;27;20054;-71
2023/05/03 05:01:35;;;;;;;1.92;1.27;;;;;;;;;;5131162;27;20051;-71
2023/05/03 05:04:02;;;;;;;2.20;1.10;;;;;;;;;;5126127;27;20069;-72
2023/05/03 05:06:30;;;;;;;4.35;1.30;;;;;;;;;;5108017;27;20062;-72
2023/05/03 05:08:57;;;;;;;3.13;1.15;;;;;;;;;;5128944;27;20131;-72
2023/05/03 05:11:26;;;;;;;1.38;0.90;;;;;;;;;;5131155;27;20055;-72
2023/05/03 05:13:53;;;;;;;1.52;0.82;;;;;;;;;;5126022;27;20058;-72
2023/05/03 05:16:20;;;;;;;1.23;0.77;;;;;;;;;;5129421;27;20494;-72
2023/05/03 05:18:48;;;;;;;1.33;0.90;;;;;;;;;;5111061;27;20059;-72
2023/05/03 05:21:15;;;;;;;1.20;0.95;;;;;;;;;;5119449;27;20122;-71
2023/05/03 05:23:43;;;;;;;2.72;0.90;;;;;;;;;;5122871;27;20501;-71
2023/05/03 05:26:10;;;;;;;1.10;0.80;;;;;;;;;;5117475;27;20060;-72
2023/05/03 05:28:38;;;;;;;1.52;1.00;;;;;;;;;;5125610;27;20050;-71
2023/05/03 05:31:06;;;;;;;1.27;0.85;;;;;;;;;;5109680;27;20142;-71
2023/05/03 05:33:33;;;;;;;2.03;0.90;;;;;;;;;;5110361;27;20059;-71
2023/05/03 05:36:00;;;;;;;1.80;1.10;;;;;;;;;;5107534;27;20048;-72
2023/05/03 05:38:28;;;;;;;2.55;0.90;;;;;;;;;;5117497;27;20058;-71
2023/05/03 05:40:55;;;;;;;3.42;1.00;;;;;;;;;;5107429;27;20418;-71
2023/05/03 05:43:22;;;;;;;1.30;0.60;;;;;;;;;;5110169;27;20052;-71
2023/05/03 05:45:51;;;;;;;1.20;0.52;;;;;;;;;;5113710;27;20048;-71
2023/05/03 05:48:18;;;;;;;2.63;0.63;;;;;;;;;;5116212;27;20051;-71
2023/05/03 05:50:46;;;;;;;4.80;2.08;;;;;;;;;;5112716;27;20440;-71
2023/05/03 05:53:13;;;;;;;3.53;2.10;;;;;;;;;;5117069;27;20476;-71
2023/05/03 05:55:40;;;;;;;1.15;0.70;;;;;;;;;;5112155;27;20102;-71
2023/05/03 05:58:08;;;;;;;1.80;0.70;;;;;;;;;;5113239;27;20344;-68
2023/05/03 06:00:36;;;;;;;1.08;0.70;;;;;;;;;;5121265;27;20043;-68
2023/05/03 06:03:05;;;;;;;1.40;0.80;;;;;;;;;;5113557;27;20126;-70
2023/05/03 06:05:33;;;;;;;1.63;0.70;;;;;;;;;;5117283;27;20051;-68
2023/05/03 06:08:00;;;;;;;1.40;0.70;;;;;;;;;;5104876;27;20048;-69
2023/05/03 06:10:27;;;;;;;3.45;0.80;;;;;;;;;;5107752;27;20044;-68
2023/05/03 06:12:54;;;;;;;5.13;0.80;;;;;;;;;;5110033;27;20379;-68
2023/05/03 06:15:22;;;;;;;3.15;0.80;;;;;;;;;;5109862;27;20065;-68
2023/05/03 06:17:49;;;;;;;1.83;0.55;;;;;;;;;;5109939;27;20047;-68
2023/05/03 06:20:18;;;;;;;1.23;0.95;;;;;;;;;;5111081;27;20055;-68
2023/05/03 06:22:45;;;;;;;1.63;1.02;;;;;;;;;;5124320;27;20298;-68
2023/05/03 06:25:13;;;;;;;2.22;0.73;;;;;;;;;;5125378;27;20097;-68
2023/05/03 06:27:40;;;;;;;2.85;0.88;;;;;;;;;;5126798;27;20118;-69
2023/05/03 06:30:09;;;;;;;1.50;0.70;;;;;;;;;;5124996;27;20054;-68
2023/05/03 06:32:36;;;;;;;1.40;0.40;;;;;;;;;;5127234;27;20050;-68
2023/05/03 06:35:04;;;;;;;0.75;0.50;;;;;;;;;;5126421;27;20051;-68
2023/05/03 06:37:32;;;;;;;0.70;0.50;;;;;;;;;;5128355;27;20095;-68
2023/05/03 06:40:00;;;;;;;0.65;0.40;;;;;;;;;;5106899;27;20054;-68
2023/05/03 06:42:27;;;;;;;1.83;0.63;;;;;;;;;;5127121;27;20039;-68
2023/05/03 06:44:54;;;;;;;1.85;0.40;;;;;;;;;;5125719;27;20075;-67
2023/05/03 06:47:22;;;;;;;1.15;0.50;;;;;;;;;;5128804;27;20549;-69
2023/05/03 06:49:49;;;;;;;0.88;0.40;;;;;;;;;;5126594;27;20046;-68
2023/05/03 06:52:16;;;;;;;0.85;0.30;;;;;;;;;;5128293;27;20350;-69
2023/05/03 06:54:45;;;;;;;2.35;0.43;;;;;;;;;;5126303;27;20039;-68
2023/05/03 06:57:12;;;;;;;0.93;0.25;;;;;;;;;;5107737;27;20051;-69
2023/05/03 06:59:39;;;;;;;4.57;0.50;;;;;;;;;;5126220;27;20039;-69
2023/05/03 07:02:07;;;;;;;4.75;0.52;;;;;;;;;;5125447;27;20055;-68
2023/05/03 07:04:36;;;;;;;1.33;0.40;;;;;;;;;;5125983;27;20054;-68
2023/05/03 07:07:03;;;;;;;1.85;0.50;;;;;;;;;;5126900;27;20055;-68
2023/05/03 07:09:31;;;;;;;2.22;0.55;;;;;;;;;;5126852;27;20036;-69
2023/05/03 07:12:00;;;;;;;0.82;0.45;;;;;;;;;;5125656;27;20051;-69
2023/05/03 07:14:27;;;;;;;1.42;0.43;;;;;;;;;;5126417;27;20145;-68
2023/05/03 07:16:55;;;;;;;6.75;3.58;;;;;;;;;;5128720;27;20424;-68
2023/05/03 07:19:22;;;;;;;1.45;0.40;;;;;;;;;;5128268;27;20057;-68
2023/05/03 07:21:49;;;;;;;0.32;0.32;;;;;;;;;;5128438;27;20043;-68
2023/05/03 07:24:17;;;;;;;0.68;0.40;;;;;;;;;;5127623;27;20039;-68
2023/05/03 07:26:45;;;;;;;0.52;0.30;;;;;;;;;;5125986;27;20557;-68
2023/05/03 07:29:14;;;;;;;3.65;0.68;;;;;;;;;;5127611;27;20057;-69
2023/05/03 07:31:41;;;;;;;0.93;0.30;;;;;;;;;;5126431;27;20078;-69
2023/05/03 07:34:08;;;;;;;1.33;0.60;;;;;;;;;;5127720;27;20421;-68
2023/05/03 07:36:35;;;;;;;0.75;0.40;;;;;;;;;;5127303;27;20521;-69
2023/05/03 07:39:04;;;;;;;3.20;1.02;;;;;;;;;;5128121;27;20065;-69
2023/05/03 07:41:31;;;;;;;1.35;0.40;;;;;;;;;;5127552;27;20375;-69
2023/05/03 07:43:58;;;;;;;1.90;0.52;;;;;;;;;;5126234;27;20079;-69
2023/05/03 07:46:27;;;;;;;1.27;0.32;;;;;;;;;;5128269;27;20047;-69
2023/05/03 07:48:54;;;;;;;0.75;0.40;;;;;;;;;;5127246;27;20066;-69
2023/05/03 07:51:21;;;;;;;0.70;0.50;;;;;;;;;;5128505;27;20446;-69
2023/05/03 07:53:49;;;;;;;1.70;0.40;;;;;;;;;;5128430;27;20055;-69
2023/05/03 07:56:16;;;;;;;0.82;0.40;;;;;;;;;;5128024;27;20047;-68
2023/05/03 07:58:43;;;;;;;0.63;0.43;;;;;;;;;;5126481;27;20051;-69
2023/05/03 08:01:10;;;;;;;0.80;0.50;;;;;;;;;;5101880;28;20051;-69
2023/05/03 08:03:39;;;;;;;0.28;0.22;;;;;;;;;;5125745;27;20520;-68
2023/05/03 08:06:07;;;;;;;0.82;0.35;;;;;;;;;;5122414;27;20498;-69
2023/05/03 08:08:34;;;;;;;1.92;0.52;;;;;;;;;;5126085;27;20043;-69
2023/05/03 08:11:02;;;;;;;2.05;0.47;;;;;;;;;;5127587;27;20182;-69
2023/05/03 08:13:29;;;;;;;1.70;0.60;;;;;;;;;;5130751;27;20099;-69
2023/05/03 08:15:56;;;;;;;0.82;0.40;;;;;;;;;;5130225;27;20055;-68
2023/05/03 08:18:24;;;;;;;2.17;0.55;;;;;;;;;;5115422;27;20062;-69
2023/05/03 08:20:53;;;;;;;1.25;0.68;;;;;;;;;;5127597;27;20528;-69
2023/05/03 08:23:21;;;;;;;2.85;0.52;;;;;;;;;;5129091;27;20376;-68
2023/05/03 08:25:49;;;;;;;0.70;0.40;;;;;;;;;;5131574;27;20100;-69
2023/05/03 08:28:16;;;;;;;2.40;0.50;;;;;;;;;;5129216;27;20447;-68
2023/05/03 08:30:43;;;;;;;1.65;0.70;;;;;;;;;;5130533;27;20058;-69
2023/05/03 08:33:11;;;;;;;3.70;0.85;;;;;;;;;;5129198;27;20051;-69
2023/05/03 08:47:32;;;;;;;2.58;0.50;;;;;;;;;;5104515;27;20496;-69
2023/05/03 08:49:59;;;;;;;2.63;0.80;;;;;;;;;;5104143;28;20058;-69
2023/05/03 08:52:27;;;;;;;2.53;0.50;;;;;;;;;;5103409;28;20048;-70
2023/05/03 08:54:54;;;;;;;1.20;0.55;;;;;;;;;;5104719;28;20051;-70
2023/05/03 08:57:24;;;;;;;1.10;0.43;;;;;;;;;;5104079;28;20044;-71
2023/05/03 08:59:53;;;;;;;0.77;0.35;;;;;;;;;;5101160;28;20075;-70
2023/05/03 09:02:20;;;;;;;4.45;0.60;;;;;;;;;;5101033;28;20048;-70
2023/05/03 09:04:49;;;;;;;1.42;0.52;;;;;;;;;;5102171;28;20060;-70
2023/05/03 09:07:16;;;;;;;1.05;0.45;;;;;;;;;;5094479;28;20048;-70
2023/05/03 09:09:43;;;;;;;1.80;0.65;;;;;;;;;;5104631;28;20090;-70
2023/05/03 09:12:11;;;;;;;2.05;0.47;;;;;;;;;;5094553;28;20850;-70
2023/05/03 09:14:45;;;;;;;2.55;0.60;;;;;;;;;;5099159;28;20395;-70
2023/05/03 09:17:16;;;;;;;1.50;0.60;;;;;;;;;;5097532;28;20044;-70
2023/05/03 09:19:54;;;;;;;0.70;0.50;;;;;;;;;;5098856;28;20075;-70
2023/05/03 09:22:23;;;;;;;0.75;0.50;;;;;;;;;;5091812;28;20059;-70
2023/05/03 09:24:53;;;;;;;2.53;0.85;;;;;;;;;;5102943;28;20043;-70
2023/05/03 09:27:21;;;;;;;0.60;0.45;;;;;;;;;;5097957;28;20058;-70
2023/05/03 09:29:49;;;;;;;2.22;0.38;;;;;;;;;;5097715;28;20063;-70
2023/05/03 09:32:16;;;;;;;9.40;1.95;;;;;;;;;;5096995;28;20056;-70
2023/05/03 09:34:44;;;;;;;17.88;3.33;;;;;;;;;;5098352;28;20112;-70
2023/05/03 09:37:13;;;;;;;2.60;0.63;;;;;;;;;;5102478;28;20051;-70
2023/05/03 09:39:41;;;;;;;1.58;0.68;;;;;;;;;;5104272;28;20052;-70
2023/05/03 09:42:13;;;;;;;3.83;0.77;;;;;;;;;;5086155;28;20063;-71
2023/05/03 09:44:44;;;;;;;1.40;0.40;;;;;;;;;;5099169;28;20134;-70
2023/05/03 09:47:12;;;;;;;1.08;0.50;;;;;;;;;;5101411;28;20571;-70
2023/05/03 09:49:39;;;;;;;1.10;0.50;;;;;;;;;;5100833;28;20525;-70
2023/05/03 09:52:07;;;;;;;0.50;0.50;;;;;;;;;;5101864;28;20552;-70
2023/05/03 09:54:36;;;;;;;2.20;0.57;;;;;;;;;;5102568;28;20056;-70
2023/05/03 09:57:04;;;;;;;2.40;0.60;;;;;;;;;;5098073;28;20740;-70
2023/05/03 09:59:32;;;;;;;2.33;0.80;;;;;;;;;;5086162;28;20059;-70
2023/05/03 10:02:01;;;;;;;2.10;0.70;;;;;;;;;;5081567;28;20459;-70
2023/05/03 10:04:29;;;;;;;1.55;0.52;;;;;;;;;;5087760;28;20090;-70
2023/05/03 10:07:00;;;;;;;1.92;0.50;;;;;;;;;;5075626;28;20498;-70
2023/05/03 10:09:30;;;;;;;1.05;0.55;;;;;;;;;;5089706;28;20135;-70
2023/05/03 10:12:01;;;;;;;1.33;0.50;;;;;;;;;;5086470;28;20056;-70
2023/05/03 10:14:29;;;;;;;2.03;0.60;;;;;;;;;;5076115;28;20129;-70
2023/05/03 10:16:59;;;;;;;0.93;0.60;;;;;;;;;;5081643;28;20058;-70
2023/05/03 10:19:29;;;;;;;2.55;0.50;;;;;;;;;;5084970;28;20127;-70
2023/05/03 10:22:04;;;;;;;2.33;0.70;;;;;;;;;;5089528;28;20044;-70
2023/05/03 10:24:31;;;;;;;0.40;0.40;;;;;;;;;;5086299;28;20047;-70
2023/05/03 10:27:00;;;;;;;1.33;0.70;;;;;;;;;;5081491;28;20051;-70
2023/05/03 10:29:48;;;;;;;1.35;0.55;;;;;;;;;;5085513;28;20048;-71
2023/05/03 10:32:29;;;;;;;2.95;0.80;;;;;;;;;;5085512;28;20577;-70
2023/05/03 10:34:57;;;;;;;1.85;0.55;;;;;;;;;;5086949;28;20048;-70
2023/05/03 10:37:26;;;;;;;2.13;0.68;;;;;;;;;;5082190;28;20048;-70
2023/05/03 10:39:53;;;;;;;1.60;0.70;;;;;;;;;;5083545;28;20126;-70
2023/05/03 10:42:26;;;;;;;1.63;0.60;;;;;;;;;;5075558;28;20048;-70
2023/05/03 10:44:53;;;;;;;1.10;0.60;;;;;;;;;;5082046;28;20499;-70
2023/05/03 10:47:22;;;;;;;1.73;0.50;;;;;;;;;;5084177;28;20051;-70
2023/05/03 10:50:15;;;;;;;1.05;0.60;;;;;;;;;;5082724;28;20044;-70
2023/05/03 10:52:49;;;;;;;1.88;0.95;;;;;;;;;;5085568;28;20480;-70
2023/05/03 10:55:17;;;;;;;1.90;0.80;;;;;;;;;;5089687;28;20052;-70
2023/05/03 10:57:47;;;;;;;1.10;0.60;;;;;;;;;;5080404;28;20047;-70
2023/05/03 11:00:16;;;;;;;3.60;0.93;;;;;;;;;;5083889;28;20048;-70
2023/05/03 11:02:46;;;;;;;1.70;0.63;;;;;;;;;;5081719;28;20380;-70
2023/05/03 11:05:16;;;;;;;1.73;0.80;;;;;;;;;;5081633;28;20581;-70
2023/05/03 11:07:43;;;;;;;1.38;0.63;;;;;;;;;;5087293;28;20151;-69
2023/05/03 11:10:17;;;;;;;3.10;0.70;;;;;;;;;;5081729;28;20066;-70
2023/05/03 11:12:44;;;;;;;1.40;0.60;;;;;;;;;;5085233;28;20044;-70
2023/05/03 11:15:13;;;;;;;0.68;0.60;;;;;;;;;;5087388;28;20056;-70
2023/05/03 11:17:41;;;;;;;0.80;0.50;;;;;;;;;;5084946;28;20048;-70
2023/05/03 11:20:08;;;;;;;1.35;0.70;;;;;;;;;;5088428;28;20055;-70
2023/05/03 11:22:36;;;;;;;3.33;0.90;;;;;;;;;;5080320;28;20044;-70
2023/05/03 11:25:03;;;;;;;0.80;0.60;;;;;;;;;;5083867;28;20055;-70
2023/05/03 11:27:31;;;;;;;0.80;0.50;;;;;;;;;;5082916;28;20055;-70
2023/05/03 11:29:58;;;;;;;3.40;0.63;;;;;;;;;;5083953;28;20532;-70
2023/05/03 11:32:29;;;;;;;0.98;0.70;;;;;;;;;;5085305;28;20482;-70
2023/05/03 11:34:58;;;;;;;1.25;0.65;;;;;;;;;;5086036;28;20044;-70
2023/05/03 11:37:25;;;;;;;3.05;0.57;;;;;;;;;;5089809;28;20051;-70
2023/05/03 11:39:52;;;;;;;6.35;1.50;;;;;;;;;;5082459;28;20083;-70
2023/05/03 11:42:20;;;;;;;2.15;0.70;;;;;;;;;;5085460;28;20044;-70
2023/05/03 11:44:47;;;;;;;1.38;0.55;;;;;;;;;;5084374;28;20056;-70
2023/05/03 11:47:14;;;;;;;3.17;0.88;;;;;;;;;;5086970;28;20399;-70
2023/05/03 11:49:51;;;;;;;4.15;0.70;;;;;;;;;;5085332;28;20561;-70
2023/05/03 11:52:21;;;;;;;1.58;0.68;;;;;;;;;;5077558;28;20049;-70
2023/05/03 11:54:48;;;;;;;1.45;0.70;;;;;;;;;;5088489;28;20047;-70
2023/05/03 11:57:15;;;;;;;2.10;0.82;;;;;;;;;;5086663;28;20044;-70
2023/05/03 11:59:43;;;;;;;1.48;0.63;;;;;;;;;;5080454;28;20047;-70
2023/05/03 12:02:12;;;;;;;1.30;0.50;;;;;;;;;;5080001;28;20147;-70
2023/05/03 12:04:41;;;;;;;3.80;0.70;;;;;;;;;;5084876;28;20491;-70
2023/05/03 12:07:09;;;;;;;2.80;0.80;;;;;;;;;;5080669;28;20403;-70
2023/05/03 12:09:37;;;;;;;1.30;0.50;;;;;;;;;;5083143;28;20045;-70
2023/05/03 12:12:04;;;;;;;1.45;0.52;;;;;;;;;;5085110;28;20161;-70
2023/05/03 12:14:46;;;;;;;2.05;0.80;;;;;;;;;;5075886;28;20083;-71
2023/05/03 12:17:14;;;;;;;1.65;0.73;;;;;;;;;;5084331;28;20043;-71
2023/05/03 12:19:41;;;;;;;3.13;0.80;;;;;;;;;;5086092;28;20236;-71
2023/05/03 12:22:19;;;;;;;0.60;0.55;;;;;;;;;;5082885;28;20402;-70
2023/05/03 12:24:47;;;;;;;2.33;0.63;;;;;;;;;;5087099;28;20052;-71
2023/05/03 12:27:15;;;;;;;2.35;0.80;;;;;;;;;;5086552;28;20437;-66
2023/05/03 12:29:43;;;;;;;1.30;0.70;;;;;;;;;;5079690;28;20559;-66
2023/05/03 12:32:10;;;;;;;2.10;0.73;;;;;;;;;;5086509;28;20040;-66
2023/05/03 12:34:39;;;;;;;2.08;0.68;;;;;;;;;;5086002;28;20115;-66
2023/05/03 12:37:06;;;;;;;1.48;0.80;;;;;;;;;;5083625;28;20068;-66
2023/05/03 12:39:35;;;;;;;1.20;0.70;;;;;;;;;;5083910;28;20099;-66
2023/05/03 12:42:02;;;;;;;2.22;0.90;;;;;;;;;;5086992;28;20401;-66
2023/05/03 12:44:29;;;;;;;1.52;0.60;;;;;;;;;;5084070;28;20048;-65
2023/05/03 12:46:56;;;;;;;1.38;0.80;;;;;;;;;;5086613;28;20058;-66
2023/05/03 12:49:24;;;;;;;0.95;0.50;;;;;;;;;;5086985;28;20052;-66
2023/05/03 12:51:54;;;;;;;2.00;0.63;;;;;;;;;;5082624;28;20115;-66
2023/05/03 12:54:21;;;;;;;1.02;0.50;;;;;;;;;;5086611;28;20113;-66
2023/05/03 12:56:50;;;;;;;1.00;0.63;;;;;;;;;;5082050;28;20047;-66
2023/05/03 12:59:17;;;;;;;2.33;0.80;;;;;;;;;;5082268;28;20105;-66
2023/05/03 13:01:44;;;;;;;1.48;0.95;;;;;;;;;;5084721;28;20493;-66
2023/05/03 13:04:12;;;;;;;3.05;0.93;;;;;;;;;;5080496;28;20070;-66
2023/05/03 13:06:40;;;;;;;1.88;0.80;;;;;;;;;;5082453;28;20048;-66
2023/05/03 13:09:07;;;;;;;2.28;0.85;;;;;;;;;;5083998;28;20044;-66
2023/05/03 13:11:35;;;;;;;1.65;1.00;;;;;;;;;;5075856;28;20051;-66
2023/05/03 13:14:03;;;;;;;1.10;0.80;;;;;;;;;;5083225;28;20093;-67
2023/05/03 13:16:31;;;;;;;0.70;0.70;;;;;;;;;;5078679;28;20063;-66
2023/05/03 13:18:58;;;;;;;2.83;0.80;;;;;;;;;;5083957;28;20052;-64
2023/05/03 13:21:26;;;;;;;2.03;0.80;;;;;;;;;;5085111;28;20056;-65
2023/05/03 13:23:54;;;;;;;1.98;0.70;;;;;;;;;;5084177;28;20056;-65
2023/05/03 13:26:21;;;;;;;3.17;1.00;;;;;;;;;;5087342;28;20127;-65
2023/05/03 13:28:49;;;;;;;3.78;0.80;;;;;;;;;;5080596;28;20052;-64
2023/05/03 13:31:18;;;;;;;2.55;1.10;;;;;;;;;;5077732;28;20048;-65
2023/05/03 13:33:46;;;;;;;1.48;0.85;;;;;;;;;;5086991;28;20050;-64
2023/05/03 13:36:14;;;;;;;1.48;0.88;;;;;;;;;;5084619;28;20040;-64
2023/05/03 13:38:41;;;;;;;1.83;0.70;;;;;;;;;;5090598;28;20155;-64
2023/05/03 13:41:09;;;;;;;1.55;0.90;;;;;;;;;;5089626;28;20507;-65
2023/05/03 13:43:36;;;;;;;2.20;0.82;;;;;;;;;;5078032;28;20041;-64
2023/05/03 13:46:03;;;;;;;1.80;0.95;;;;;;;;;;5082218;28;20525;-64
2023/05/03 13:48:32;;;;;;;1.10;0.90;;;;;;;;;;5089996;28;20051;-64
2023/05/03 13:50:59;;;;;;;4.22;1.20;;;;;;;;;;5090528;28;20059;-65
2023/05/03 13:53:26;;;;;;;2.05;0.73;;;;;;;;;;5085280;28;20549;-64
2023/05/03 13:55:53;;;;;;;1.10;1.00;;;;;;;;;;5085687;28;20048;-64
2023/05/03 13:58:21;;;;;;;1.10;0.90;;;;;;;;;;5089429;28;20048;-65
2023/05/03 14:00:48;;;;;;;1.40;1.00;;;;;;;;;;5086156;28;20051;-64
2023/05/03 14:03:16;;;;;;;1.75;0.90;;;;;;;;;;5079637;28;20055;-64
2023/05/03 14:05:44;;;;;;;1.00;0.90;;;;;;;;;;5076896;28;20098;-68
2023/05/03 14:08:12;;;;;;;2.15;1.15;;;;;;;;;;5088060;28;20040;-65
2023/05/03 14:10:39;;;;;;;1.60;1.02;;;;;;;;;;5078606;28;20076;-64
2023/05/03 14:13:07;;;;;;;1.95;0.90;;;;;;;;;;5084678;28;20491;-64
2023/05/03 14:15:38;;;;;;;2.05;1.00;;;;;;;;;;5090627;28;20122;-65
2023/05/03 14:18:06;;;;;;;1.10;1.00;;;;;;;;;;5086895;28;20048;-66
2023/05/03 14:20:34;;;;;;;1.05;0.95;;;;;;;;;;5088338;28;20106;-65
2023/05/03 14:23:03;;;;;;;1.48;0.98;;;;;;;;;;5090046;28;20044;-65
2023/05/03 14:25:30;;;;;;;1.80;1.17;;;;;;;;;;5085959;28;20383;-65
2023/05/03 14:27:57;;;;;;;1.92;1.20;;;;;;;;;;5090098;28;20067;-65
2023/05/03 14:30:25;;;;;;;1.10;0.77;;;;;;;;;;5083719;28;20055;-65
2023/05/03 14:32:52;;;;;;;1.42;1.10;;;;;;;;;;5080150;28;20059;-65
2023/05/03 14:35:20;;;;;;;1.55;1.00;;;;;;;;;;5083942;28;20040;-65
2023/05/03 14:37:47;;;;;;;1.80;1.20;;;;;;;;;;5082583;28;20062;-65
2023/05/03 14:40:17;;;;;;;4.80;1.27;;;;;;;;;;5083509;28;20090;-65
2023/05/03 14:42:44;;;;;;;1.83;1.10;;;;;;;;;;5087056;28;20040;-65
2023/05/03 14:45:13;;;;;;;1.10;1.00;;;;;;;;;;5080154;28;20102;-66
2023/05/03 14:47:41;;;;;;;1.48;0.80;;;;;;;;;;5082933;28;20075;-65
2023/05/03 14:50:09;;;;;;;1.45;1.30;;;;;;;;;;5085305;28;20059;-65
2023/05/03 14:52:36;;;;;;;3.10;1.35;;;;;;;;;;5079700;28;20491;-65
2023/05/03 14:55:05;;;;;;;2.90;1.50;;;;;;;;;;5088725;28;20410;-66
2023/05/03 14:57:35;;;;;;;2.25;1.25;;;;;;;;;;5086917;28;20083;-65
2023/05/03 15:00:03;;;;;;;1.50;1.10;;;;;;;;;;5082195;28;20435;-65
2023/05/03 15:02:30;;;;;;;1.77;1.10;;;;;;;;;;5083645;28;20079;-65
2023/05/03 15:04:58;;;;;;;1.70;1.15;;;;;;;;;;5081142;28;20055;-65
2023/05/03 15:07:26;;;;;;;2.17;1.20;;;;;;;;;;5083503;28;20056;-65